sensor_id;sensor_type;location;lat;lon;timestamp;P1;durP1;ratioP1;P2;durP2;ratioP2
37593;SDS011;23441;50.856;6.076;2022-12-24T00:02:12;28.85;;;4.60;;
37593;SDS011;23441;50.856;6.076;2022-12-24T00:04:37;26.70;;;4.47;;
37593;SDS011;23441;50.856;6.076;2022-12-24T00:07:03;27.75;;;3.85;;
37593;SDS011;23441;50.856;6.076;2022-12-24T00:09:28;28.27;;;4.40;;
37593;SDS011;23441;50.856;6.076;2022-12-24T00:11:55;20.40;;;3.63;;
37593;SDS011;23441;50.856;6.076;2022-12-24T00:14:20;28.92;;;4.60;;
37593;SDS011;23441;50.856;6.076;2022-12-24T00:16:46;25.65;;;3.95;;
37593;SDS011;23441;50.856;6.076;2022-12-24T00:19:12;26.55;;;3.90;;
37593;SDS011;23441;50.856;6.076;2022-12-24T00:21:37;21.80;;;4.18;;
37593;SDS011;23441;50.856;6.076;2022-12-24T00:24:03;26.10;;;4.63;;
37593;SDS011;23441;50.856;6.076;2022-12-24T00:26:30;26.58;;;4.35;;
37593;SDS011;23441;50.856;6.076;2022-12-24T00:28:57;25.08;;;4.55;;
37593;SDS011;23441;50.856;6.076;2022-12-24T00:31:23;31.58;;;4.28;;
37593;SDS011;23441;50.856;6.076;2022-12-24T00:33:48;28.35;;;4.38;;
37593;SDS011;23441;50.856;6.076;2022-12-24T00:36:14;19.75;;;3.42;;
37593;SDS011;23441;50.856;6.076;2022-12-24T00:38:41;23.27;;;4.35;;
37593;SDS011;23441;50.856;6.076;2022-12-24T00:41:07;26.60;;;4.03;;
37593;SDS011;23441;50.856;6.076;2022-12-24T00:43:49;30.58;;;4.63;;
37593;SDS011;23441;50.856;6.076;2022-12-24T00:46:16;24.98;;;4.03;;
37593;SDS011;23441;50.856;6.076;2022-12-24T00:48:41;30.63;;;4.75;;
37593;SDS011;23441;50.856;6.076;2022-12-24T00:51:07;24.77;;;4.88;;
37593;SDS011;23441;50.856;6.076;2022-12-24T00:53:32;21.08;;;3.72;;
37593;SDS011;23441;50.856;6.076;2022-12-24T00:55:58;19.15;;;3.85;;
37593;SDS011;23441;50.856;6.076;2022-12-24T00:58:23;24.45;;;4.03;;
37593;SDS011;23441;50.856;6.076;2022-12-24T01:00:49;22.67;;;3.80;;
37593;SDS011;23441;50.856;6.076;2022-12-24T01:03:15;23.60;;;3.65;;
37593;SDS011;23441;50.856;6.076;2022-12-24T01:05:41;27.13;;;4.20;;
37593;SDS011;23441;50.856;6.076;2022-12-24T01:08:06;22.35;;;4.03;;
37593;SDS011;23441;50.856;6.076;2022-12-24T01:10:32;25.02;;;4.32;;
37593;SDS011;23441;50.856;6.076;2022-12-24T01:12:59;29.10;;;4.18;;
37593;SDS011;23441;50.856;6.076;2022-12-24T01:15:26;23.85;;;4.07;;
37593;SDS011;23441;50.856;6.076;2022-12-24T01:17:52;22.80;;;3.80;;
37593;SDS011;23441;50.856;6.076;2022-12-24T01:20:18;23.73;;;4.05;;
37593;SDS011;23441;50.856;6.076;2022-12-24T01:22:44;29.42;;;4.55;;
37593;SDS011;23441;50.856;6.076;2022-12-24T01:25:10;26.48;;;3.92;;
37593;SDS011;23441;50.856;6.076;2022-12-24T01:27:36;28.80;;;4.05;;
37593;SDS011;23441;50.856;6.076;2022-12-24T01:30:02;22.13;;;3.78;;
37593;SDS011;23441;50.856;6.076;2022-12-24T01:32:32;24.35;;;4.75;;
37593;SDS011;23441;50.856;6.076;2022-12-24T01:34:57;26.88;;;4.72;;
37593;SDS011;23441;50.856;6.076;2022-12-24T01:37:23;28.65;;;4.70;;
37593;SDS011;23441;50.856;6.076;2022-12-24T01:39:49;23.85;;;5.00;;
37593;SDS011;23441;50.856;6.076;2022-12-24T01:42:18;24.55;;;4.32;;
37593;SDS011;23441;50.856;6.076;2022-12-24T01:45:30;22.95;;;4.25;;
37593;SDS011;23441;50.856;6.076;2022-12-24T01:48:14;34.40;;;5.55;;
37593;SDS011;23441;50.856;6.076;2022-12-24T01:50:46;22.33;;;4.15;;
37593;SDS011;23441;50.856;6.076;2022-12-24T01:53:14;23.00;;;4.03;;
37593;SDS011;23441;50.856;6.076;2022-12-24T01:55:40;24.27;;;3.97;;
37593;SDS011;23441;50.856;6.076;2022-12-24T01:58:07;22.17;;;3.78;;
37593;SDS011;23441;50.856;6.076;2022-12-24T02:00:35;21.48;;;3.80;;
37593;SDS011;23441;50.856;6.076;2022-12-24T02:03:00;20.42;;;3.50;;
37593;SDS011;23441;50.856;6.076;2022-12-24T02:05:37;28.17;;;5.82;;
37593;SDS011;23441;50.856;6.076;2022-12-24T02:08:13;24.92;;;4.53;;
37593;SDS011;23441;50.856;6.076;2022-12-24T02:10:39;26.95;;;4.15;;
37593;SDS011;23441;50.856;6.076;2022-12-24T02:13:04;23.38;;;4.85;;
37593;SDS011;23441;50.856;6.076;2022-12-24T02:18:31;24.67;;;4.72;;
37593;SDS011;23441;50.856;6.076;2022-12-24T02:26:32;19.15;;;3.85;;
37593;SDS011;23441;50.856;6.076;2022-12-24T02:29:06;18.17;;;4.35;;
37593;SDS011;23441;50.856;6.076;2022-12-24T02:34:56;22.58;;;4.57;;
37593;SDS011;23441;50.856;6.076;2022-12-24T02:37:32;20.15;;;3.95;;
37593;SDS011;23441;50.856;6.076;2022-12-24T02:40:04;21.45;;;4.00;;
37593;SDS011;23441;50.856;6.076;2022-12-24T02:42:36;19.88;;;4.38;;
37593;SDS011;23441;50.856;6.076;2022-12-24T02:45:12;28.92;;;5.00;;
37593;SDS011;23441;50.856;6.076;2022-12-24T02:47:41;19.08;;;3.88;;
37593;SDS011;23441;50.856;6.076;2022-12-24T02:50:09;23.23;;;5.15;;
37593;SDS011;23441;50.856;6.076;2022-12-24T02:52:41;23.40;;;4.82;;
37593;SDS011;23441;50.856;6.076;2022-12-24T02:58:47;22.45;;;4.40;;
37593;SDS011;23441;50.856;6.076;2022-12-24T03:01:10;24.77;;;4.53;;
37593;SDS011;23441;50.856;6.076;2022-12-24T03:03:57;18.33;;;3.95;;
37593;SDS011;23441;50.856;6.076;2022-12-24T03:09:30;17.25;;;3.20;;
37593;SDS011;23441;50.856;6.076;2022-12-24T03:12:14;19.27;;;3.97;;
37593;SDS011;23441;50.856;6.076;2022-12-24T03:14:44;16.40;;;3.65;;
37593;SDS011;23441;50.856;6.076;2022-12-24T03:17:12;19.63;;;3.45;;
37593;SDS011;23441;50.856;6.076;2022-12-24T03:19:39;18.08;;;2.55;;
37593;SDS011;23441;50.856;6.076;2022-12-24T03:22:06;9.32;;;2.20;;
37593;SDS011;23441;50.856;6.076;2022-12-24T03:24:34;9.48;;;2.28;;
37593;SDS011;23441;50.856;6.076;2022-12-24T03:27:00;6.22;;;1.60;;
37593;SDS011;23441;50.856;6.076;2022-12-24T03:29:28;6.07;;;1.50;;
37593;SDS011;23441;50.856;6.076;2022-12-24T03:31:59;8.45;;;1.75;;
37593;SDS011;23441;50.856;6.076;2022-12-24T03:34:26;4.88;;;1.83;;
37593;SDS011;23441;50.856;6.076;2022-12-24T03:36:52;7.95;;;1.40;;
37593;SDS011;23441;50.856;6.076;2022-12-24T03:39:18;6.50;;;1.58;;
37593;SDS011;23441;50.856;6.076;2022-12-24T03:41:44;6.03;;;1.27;;
37593;SDS011;23441;50.856;6.076;2022-12-24T03:44:09;4.68;;;1.30;;
37593;SDS011;23441;50.856;6.076;2022-12-24T03:46:35;5.97;;;1.45;;
37593;SDS011;23441;50.856;6.076;2022-12-24T03:49:01;6.68;;;1.95;;
37593;SDS011;23441;50.856;6.076;2022-12-24T03:51:26;9.05;;;1.60;;
37593;SDS011;23441;50.856;6.076;2022-12-24T03:53:53;8.57;;;1.63;;
37593;SDS011;23441;50.856;6.076;2022-12-24T03:56:19;14.48;;;2.53;;
37593;SDS011;23441;50.856;6.076;2022-12-24T03:58:45;12.55;;;2.58;;
37593;SDS011;23441;50.856;6.076;2022-12-24T04:01:11;15.18;;;3.13;;
37593;SDS011;23441;50.856;6.076;2022-12-24T04:03:37;15.48;;;3.55;;
37593;SDS011;23441;50.856;6.076;2022-12-24T04:06:04;18.70;;;4.28;;
37593;SDS011;23441;50.856;6.076;2022-12-24T04:08:31;17.98;;;4.18;;
37593;SDS011;23441;50.856;6.076;2022-12-24T04:10:57;20.25;;;4.70;;
37593;SDS011;23441;50.856;6.076;2022-12-24T04:13:23;27.75;;;5.07;;
37593;SDS011;23441;50.856;6.076;2022-12-24T04:15:56;32.13;;;5.65;;
37593;SDS011;23441;50.856;6.076;2022-12-24T04:18:26;24.15;;;5.95;;
37593;SDS011;23441;50.856;6.076;2022-12-24T04:20:52;30.40;;;5.00;;
37593;SDS011;23441;50.856;6.076;2022-12-24T04:23:18;30.00;;;5.55;;
37593;SDS011;23441;50.856;6.076;2022-12-24T04:25:44;28.83;;;5.18;;
37593;SDS011;23441;50.856;6.076;2022-12-24T04:28:09;30.95;;;6.30;;
37593;SDS011;23441;50.856;6.076;2022-12-24T04:30:37;27.20;;;4.60;;
37593;SDS011;23441;50.856;6.076;2022-12-24T04:33:03;30.90;;;4.75;;
37593;SDS011;23441;50.856;6.076;2022-12-24T04:35:28;29.92;;;5.30;;
37593;SDS011;23441;50.856;6.076;2022-12-24T04:37:54;25.85;;;6.78;;
37593;SDS011;23441;50.856;6.076;2022-12-24T04:40:20;23.92;;;4.93;;
37593;SDS011;23441;50.856;6.076;2022-12-24T04:42:45;32.90;;;5.53;;
37593;SDS011;23441;50.856;6.076;2022-12-24T04:45:11;25.73;;;4.82;;
37593;SDS011;23441;50.856;6.076;2022-12-24T04:47:36;21.75;;;5.07;;
37593;SDS011;23441;50.856;6.076;2022-12-24T04:50:02;38.58;;;5.60;;
37593;SDS011;23441;50.856;6.076;2022-12-24T04:52:28;24.65;;;5.40;;
37593;SDS011;23441;50.856;6.076;2022-12-24T04:54:53;27.67;;;5.70;;
37593;SDS011;23441;50.856;6.076;2022-12-24T04:57:19;25.98;;;5.43;;
37593;SDS011;23441;50.856;6.076;2022-12-24T04:59:45;31.73;;;6.15;;
37593;SDS011;23441;50.856;6.076;2022-12-24T05:02:11;30.52;;;6.72;;
37593;SDS011;23441;50.856;6.076;2022-12-24T05:04:36;29.15;;;6.55;;
37593;SDS011;23441;50.856;6.076;2022-12-24T05:07:02;35.60;;;6.25;;
37593;SDS011;23441;50.856;6.076;2022-12-24T05:09:28;31.05;;;7.47;;
37593;SDS011;23441;50.856;6.076;2022-12-24T05:11:54;40.10;;;6.03;;
37593;SDS011;23441;50.856;6.076;2022-12-24T05:14:19;30.08;;;6.80;;
37593;SDS011;23441;50.856;6.076;2022-12-24T05:16:45;36.42;;;6.60;;
37593;SDS011;23441;50.856;6.076;2022-12-24T05:19:10;38.40;;;6.65;;
37593;SDS011;23441;50.856;6.076;2022-12-24T05:21:36;50.55;;;7.75;;
37593;SDS011;23441;50.856;6.076;2022-12-24T05:24:01;43.05;;;7.40;;
37593;SDS011;23441;50.856;6.076;2022-12-24T05:26:49;34.03;;;6.18;;
37593;SDS011;23441;50.856;6.076;2022-12-24T05:29:17;37.05;;;6.00;;
37593;SDS011;23441;50.856;6.076;2022-12-24T05:31:43;29.80;;;5.80;;
37593;SDS011;23441;50.856;6.076;2022-12-24T05:34:09;35.10;;;5.57;;
37593;SDS011;23441;50.856;6.076;2022-12-24T05:36:36;36.83;;;5.80;;
37593;SDS011;23441;50.856;6.076;2022-12-24T05:39:02;37.25;;;6.13;;
37593;SDS011;23441;50.856;6.076;2022-12-24T05:41:28;39.55;;;6.78;;
37593;SDS011;23441;50.856;6.076;2022-12-24T05:43:54;27.15;;;6.30;;
37593;SDS011;23441;50.856;6.076;2022-12-24T05:46:20;29.83;;;5.65;;
37593;SDS011;23441;50.856;6.076;2022-12-24T05:48:47;35.85;;;7.07;;
37593;SDS011;23441;50.856;6.076;2022-12-24T05:51:14;27.02;;;5.95;;
37593;SDS011;23441;50.856;6.076;2022-12-24T05:53:43;38.92;;;7.13;;
37593;SDS011;23441;50.856;6.076;2022-12-24T05:56:14;33.47;;;6.07;;
37593;SDS011;23441;50.856;6.076;2022-12-24T05:58:42;34.78;;;5.53;;
37593;SDS011;23441;50.856;6.076;2022-12-24T06:01:08;23.10;;;5.60;;
37593;SDS011;23441;50.856;6.076;2022-12-24T06:03:34;38.25;;;5.72;;
37593;SDS011;23441;50.856;6.076;2022-12-24T06:06:02;24.20;;;5.30;;
37593;SDS011;23441;50.856;6.076;2022-12-24T06:08:28;28.73;;;5.55;;
37593;SDS011;23441;50.856;6.076;2022-12-24T06:10:55;40.78;;;7.07;;
37593;SDS011;23441;50.856;6.076;2022-12-24T06:13:22;30.90;;;5.80;;
37593;SDS011;23441;50.856;6.076;2022-12-24T06:15:48;31.38;;;5.38;;
37593;SDS011;23441;50.856;6.076;2022-12-24T06:18:14;33.58;;;5.40;;
37593;SDS011;23441;50.856;6.076;2022-12-24T06:20:39;35.13;;;4.93;;
37593;SDS011;23441;50.856;6.076;2022-12-24T06:23:05;32.38;;;6.75;;
37593;SDS011;23441;50.856;6.076;2022-12-24T06:25:30;29.70;;;5.15;;
37593;SDS011;23441;50.856;6.076;2022-12-24T06:27:56;31.50;;;6.00;;
37593;SDS011;23441;50.856;6.076;2022-12-24T06:30:22;35.00;;;5.72;;
37593;SDS011;23441;50.856;6.076;2022-12-24T06:32:48;29.25;;;5.22;;
37593;SDS011;23441;50.856;6.076;2022-12-24T06:35:14;29.88;;;5.13;;
37593;SDS011;23441;50.856;6.076;2022-12-24T06:37:39;30.27;;;5.68;;
37593;SDS011;23441;50.856;6.076;2022-12-24T06:40:05;32.90;;;5.55;;
37593;SDS011;23441;50.856;6.076;2022-12-24T06:42:31;25.73;;;5.55;;
37593;SDS011;23441;50.856;6.076;2022-12-24T06:44:57;35.67;;;6.55;;
37593;SDS011;23441;50.856;6.076;2022-12-24T06:47:22;24.75;;;5.13;;
37593;SDS011;23441;50.856;6.076;2022-12-24T06:49:48;26.48;;;5.47;;
37593;SDS011;23441;50.856;6.076;2022-12-24T06:52:13;29.75;;;5.15;;
37593;SDS011;23441;50.856;6.076;2022-12-24T06:54:39;25.80;;;5.38;;
37593;SDS011;23441;50.856;6.076;2022-12-24T06:57:05;20.85;;;4.82;;
37593;SDS011;23441;50.856;6.076;2022-12-24T06:59:31;29.35;;;4.95;;
37593;SDS011;23441;50.856;6.076;2022-12-24T07:01:56;29.05;;;6.03;;
37593;SDS011;23441;50.856;6.076;2022-12-24T07:04:22;34.90;;;5.65;;
37593;SDS011;23441;50.856;6.076;2022-12-24T07:06:48;31.35;;;6.18;;
37593;SDS011;23441;50.856;6.076;2022-12-24T07:09:13;29.00;;;4.95;;
37593;SDS011;23441;50.856;6.076;2022-12-24T07:11:39;31.85;;;5.72;;
37593;SDS011;23441;50.856;6.076;2022-12-24T07:14:05;35.03;;;6.28;;
37593;SDS011;23441;50.856;6.076;2022-12-24T07:16:30;30.58;;;6.28;;
37593;SDS011;23441;50.856;6.076;2022-12-24T07:18:56;36.00;;;5.90;;
37593;SDS011;23441;50.856;6.076;2022-12-24T07:21:21;32.83;;;6.13;;
37593;SDS011;23441;50.856;6.076;2022-12-24T07:23:47;36.88;;;6.70;;
37593;SDS011;23441;50.856;6.076;2022-12-24T07:26:12;42.17;;;5.72;;
37593;SDS011;23441;50.856;6.076;2022-12-24T07:28:38;24.10;;;5.35;;
37593;SDS011;23441;50.856;6.076;2022-12-24T07:31:04;34.78;;;5.88;;
37593;SDS011;23441;50.856;6.076;2022-12-24T07:33:30;33.45;;;5.45;;
37593;SDS011;23441;50.856;6.076;2022-12-24T07:36:03;35.85;;;5.47;;
37593;SDS011;23441;50.856;6.076;2022-12-24T07:38:30;38.70;;;6.13;;
37593;SDS011;23441;50.856;6.076;2022-12-24T07:40:57;28.38;;;5.35;;
37593;SDS011;23441;50.856;6.076;2022-12-24T07:43:23;28.55;;;4.78;;
37593;SDS011;23441;50.856;6.076;2022-12-24T07:45:51;32.72;;;5.93;;
37593;SDS011;23441;50.856;6.076;2022-12-24T07:48:19;30.70;;;6.22;;
37593;SDS011;23441;50.856;6.076;2022-12-24T07:50:45;31.95;;;5.03;;
37593;SDS011;23441;50.856;6.076;2022-12-24T07:53:13;35.17;;;6.43;;
37593;SDS011;23441;50.856;6.076;2022-12-24T07:55:39;31.42;;;6.25;;
37593;SDS011;23441;50.856;6.076;2022-12-24T07:58:04;38.63;;;5.75;;
37593;SDS011;23441;50.856;6.076;2022-12-24T08:00:30;31.55;;;6.25;;
37593;SDS011;23441;50.856;6.076;2022-12-24T08:02:56;37.13;;;7.10;;
37593;SDS011;23441;50.856;6.076;2022-12-24T08:05:24;41.30;;;8.02;;
37593;SDS011;23441;50.856;6.076;2022-12-24T08:07:51;37.67;;;5.93;;
37593;SDS011;23441;50.856;6.076;2022-12-24T08:10:16;37.83;;;5.57;;
37593;SDS011;23441;50.856;6.076;2022-12-24T08:12:42;41.60;;;7.30;;
37593;SDS011;23441;50.856;6.076;2022-12-24T08:15:08;39.35;;;5.97;;
37593;SDS011;23441;50.856;6.076;2022-12-24T08:17:33;41.10;;;6.35;;
37593;SDS011;23441;50.856;6.076;2022-12-24T08:19:59;32.65;;;6.82;;
37593;SDS011;23441;50.856;6.076;2022-12-24T08:22:24;27.02;;;5.20;;
37593;SDS011;23441;50.856;6.076;2022-12-24T08:24:50;28.48;;;5.40;;
37593;SDS011;23441;50.856;6.076;2022-12-24T08:27:16;34.97;;;4.80;;
37593;SDS011;23441;50.856;6.076;2022-12-24T08:29:41;35.30;;;6.38;;
37593;SDS011;23441;50.856;6.076;2022-12-24T08:32:07;25.98;;;4.95;;
37593;SDS011;23441;50.856;6.076;2022-12-24T08:34:32;34.97;;;6.25;;
37593;SDS011;23441;50.856;6.076;2022-12-24T08:36:58;26.63;;;5.03;;
37593;SDS011;23441;50.856;6.076;2022-12-24T08:39:23;39.30;;;6.03;;
37593;SDS011;23441;50.856;6.076;2022-12-24T08:41:49;25.52;;;4.47;;
37593;SDS011;23441;50.856;6.076;2022-12-24T08:44:15;31.25;;;5.63;;
37593;SDS011;23441;50.856;6.076;2022-12-24T08:46:40;44.92;;;6.55;;
37593;SDS011;23441;50.856;6.076;2022-12-24T08:49:06;30.98;;;5.93;;
37593;SDS011;23441;50.856;6.076;2022-12-24T08:51:32;39.08;;;6.22;;
37593;SDS011;23441;50.856;6.076;2022-12-24T08:53:57;36.90;;;5.63;;
37593;SDS011;23441;50.856;6.076;2022-12-24T08:56:23;37.00;;;7.07;;
37593;SDS011;23441;50.856;6.076;2022-12-24T08:58:48;39.10;;;5.88;;
37593;SDS011;23441;50.856;6.076;2022-12-24T09:01:15;34.40;;;6.45;;
37593;SDS011;23441;50.856;6.076;2022-12-24T09:03:42;30.05;;;5.30;;
37593;SDS011;23441;50.856;6.076;2022-12-24T09:06:08;36.70;;;5.65;;
37593;SDS011;23441;50.856;6.076;2022-12-24T09:08:34;36.33;;;8.07;;
37593;SDS011;23441;50.856;6.076;2022-12-24T09:11:04;34.55;;;6.00;;
37593;SDS011;23441;50.856;6.076;2022-12-24T09:13:30;40.65;;;5.97;;
37593;SDS011;23441;50.856;6.076;2022-12-24T09:15:56;31.95;;;5.20;;
37593;SDS011;23441;50.856;6.076;2022-12-24T09:18:22;32.85;;;6.05;;
37593;SDS011;23441;50.856;6.076;2022-12-24T09:20:48;29.85;;;5.60;;
37593;SDS011;23441;50.856;6.076;2022-12-24T09:23:13;30.33;;;5.30;;
37593;SDS011;23441;50.856;6.076;2022-12-24T09:25:42;36.67;;;5.65;;
37593;SDS011;23441;50.856;6.076;2022-12-24T09:28:08;24.10;;;5.45;;
37593;SDS011;23441;50.856;6.076;2022-12-24T09:30:35;34.95;;;5.78;;
37593;SDS011;23441;50.856;6.076;2022-12-24T09:33:01;30.98;;;5.72;;
37593;SDS011;23441;50.856;6.076;2022-12-24T09:35:27;27.02;;;4.97;;
37593;SDS011;23441;50.856;6.076;2022-12-24T09:37:52;26.88;;;5.45;;
37593;SDS011;23441;50.856;6.076;2022-12-24T09:40:29;26.55;;;6.03;;
37593;SDS011;23441;50.856;6.076;2022-12-24T09:43:01;27.58;;;4.93;;
37593;SDS011;23441;50.856;6.076;2022-12-24T09:45:40;30.05;;;5.90;;
37593;SDS011;23441;50.856;6.076;2022-12-24T09:48:29;31.65;;;5.20;;
37593;SDS011;23441;50.856;6.076;2022-12-24T09:51:09;26.58;;;5.38;;
37593;SDS011;23441;50.856;6.076;2022-12-24T09:56:37;35.15;;;5.93;;
37593;SDS011;23441;50.856;6.076;2022-12-24T09:59:05;25.48;;;5.32;;
37593;SDS011;23441;50.856;6.076;2022-12-24T10:01:48;40.17;;;6.03;;
37593;SDS011;23441;50.856;6.076;2022-12-24T10:04:19;28.58;;;5.10;;
37593;SDS011;23441;50.856;6.076;2022-12-24T10:12:16;30.17;;;7.78;;
37593;SDS011;23441;50.856;6.076;2022-12-24T10:15:29;33.08;;;7.68;;
37593;SDS011;23441;50.856;6.076;2022-12-24T10:23:45;34.85;;;7.05;;
37593;SDS011;23441;50.856;6.076;2022-12-24T10:26:27;34.70;;;6.80;;
37593;SDS011;23441;50.856;6.076;2022-12-24T10:29:13;28.13;;;5.63;;
37593;SDS011;23441;50.856;6.076;2022-12-24T10:32:28;33.50;;;6.55;;
37593;SDS011;23441;50.856;6.076;2022-12-24T10:34:32;35.38;;;5.25;;
37593;SDS011;23441;50.856;6.076;2022-12-24T10:37:03;25.50;;;5.55;;
37593;SDS011;23441;50.856;6.076;2022-12-24T10:39:30;36.55;;;5.57;;
37593;SDS011;23441;50.856;6.076;2022-12-24T10:41:56;36.47;;;6.50;;
37593;SDS011;23441;50.856;6.076;2022-12-24T10:44:28;37.08;;;6.07;;
37593;SDS011;23441;50.856;6.076;2022-12-24T10:46:56;35.92;;;7.22;;
37593;SDS011;23441;50.856;6.076;2022-12-24T10:49:35;43.08;;;7.47;;
37593;SDS011;23441;50.856;6.076;2022-12-24T10:52:14;25.05;;;5.30;;
37593;SDS011;23441;50.856;6.076;2022-12-24T10:57:31;37.25;;;6.70;;
37593;SDS011;23441;50.856;6.076;2022-12-24T10:59:57;38.85;;;6.63;;
37593;SDS011;23441;50.856;6.076;2022-12-24T11:02:25;35.03;;;6.30;;
37593;SDS011;23441;50.856;6.076;2022-12-24T11:05:03;24.63;;;6.55;;
37593;SDS011;23441;50.856;6.076;2022-12-24T11:07:32;33.65;;;5.10;;
37593;SDS011;23441;50.856;6.076;2022-12-24T11:10:02;31.88;;;6.05;;
37593;SDS011;23441;50.856;6.076;2022-12-24T11:12:39;32.80;;;6.35;;
37593;SDS011;23441;50.856;6.076;2022-12-24T11:15:30;24.73;;;6.03;;
37593;SDS011;23441;50.856;6.076;2022-12-24T11:20:28;38.67;;;5.28;;
37593;SDS011;23441;50.856;6.076;2022-12-24T11:22:55;34.95;;;6.32;;
37593;SDS011;23441;50.856;6.076;2022-12-24T11:25:22;24.92;;;5.50;;
37593;SDS011;23441;50.856;6.076;2022-12-24T11:27:53;29.38;;;5.57;;
37593;SDS011;23441;50.856;6.076;2022-12-24T11:30:26;33.03;;;5.70;;
37593;SDS011;23441;50.856;6.076;2022-12-24T11:35:26;29.27;;;5.00;;
37593;SDS011;23441;50.856;6.076;2022-12-24T11:40:27;36.97;;;5.60;;
37593;SDS011;23441;50.856;6.076;2022-12-24T11:42:58;31.08;;;5.82;;
37593;SDS011;23441;50.856;6.076;2022-12-24T11:45:26;27.58;;;5.22;;
37593;SDS011;23441;50.856;6.076;2022-12-24T11:47:54;31.83;;;5.30;;
37593;SDS011;23441;50.856;6.076;2022-12-24T11:53:10;32.72;;;5.07;;
37593;SDS011;23441;50.856;6.076;2022-12-24T11:58:25;36.17;;;6.55;;
37593;SDS011;23441;50.856;6.076;2022-12-24T12:00:53;30.38;;;5.88;;
37593;SDS011;23441;50.856;6.076;2022-12-24T12:04:02;27.10;;;4.75;;
37593;SDS011;23441;50.856;6.076;2022-12-24T12:09:23;26.95;;;5.78;;
37593;SDS011;23441;50.856;6.076;2022-12-24T12:12:14;31.58;;;5.40;;
37593;SDS011;23441;50.856;6.076;2022-12-24T12:14:44;28.05;;;4.53;;
37593;SDS011;23441;50.856;6.076;2022-12-24T12:17:23;30.15;;;5.10;;
37593;SDS011;23441;50.856;6.076;2022-12-24T12:20:02;26.58;;;5.65;;
37593;SDS011;23441;50.856;6.076;2022-12-24T12:25:36;32.65;;;5.22;;
37593;SDS011;23441;50.856;6.076;2022-12-24T12:29:01;31.42;;;5.00;;
37593;SDS011;23441;50.856;6.076;2022-12-24T12:31:18;25.30;;;6.18;;
37593;SDS011;23441;50.856;6.076;2022-12-24T12:33:49;30.88;;;5.60;;
37593;SDS011;23441;50.856;6.076;2022-12-24T12:39:29;29.45;;;4.97;;
37593;SDS011;23441;50.856;6.076;2022-12-24T12:41:58;29.45;;;5.18;;
37593;SDS011;23441;50.856;6.076;2022-12-24T12:47:28;28.60;;;5.25;;
37593;SDS011;23441;50.856;6.076;2022-12-24T12:50:02;29.40;;;5.75;;
37593;SDS011;23441;50.856;6.076;2022-12-24T12:52:54;26.48;;;5.28;;
37593;SDS011;23441;50.856;6.076;2022-12-24T12:58:11;30.05;;;5.35;;
37593;SDS011;23441;50.856;6.076;2022-12-24T13:01:10;25.70;;;5.32;;
37593;SDS011;23441;50.856;6.076;2022-12-24T13:08:59;27.15;;;6.28;;
37593;SDS011;23441;50.856;6.076;2022-12-24T13:11:47;29.02;;;5.45;;
37593;SDS011;23441;50.856;6.076;2022-12-24T13:22:13;30.30;;;5.85;;
37593;SDS011;23441;50.856;6.076;2022-12-24T13:24:45;28.42;;;6.05;;
37593;SDS011;23441;50.856;6.076;2022-12-24T13:27:27;20.30;;;4.68;;
37593;SDS011;23441;50.856;6.076;2022-12-24T13:34:50;31.30;;;6.15;;
37593;SDS011;23441;50.856;6.076;2022-12-24T13:50:50;24.17;;;5.07;;
37593;SDS011;23441;50.856;6.076;2022-12-24T13:53:27;33.30;;;6.15;;
37593;SDS011;23441;50.856;6.076;2022-12-24T13:56:06;28.83;;;5.90;;
37593;SDS011;23441;50.856;6.076;2022-12-24T13:58:34;30.42;;;5.75;;
37593;SDS011;23441;50.856;6.076;2022-12-24T14:01:12;32.17;;;6.10;;
37593;SDS011;23441;50.856;6.076;2022-12-24T14:03:41;33.53;;;5.70;;
37593;SDS011;23441;50.856;6.076;2022-12-24T14:06:25;34.33;;;5.47;;
37593;SDS011;23441;50.856;6.076;2022-12-24T14:08:55;32.58;;;5.88;;
37593;SDS011;23441;50.856;6.076;2022-12-24T14:11:29;35.45;;;6.10;;
37593;SDS011;23441;50.856;6.076;2022-12-24T14:14:39;28.45;;;5.82;;
37593;SDS011;23441;50.856;6.076;2022-12-24T14:17:20;23.90;;;5.20;;
37593;SDS011;23441;50.856;6.076;2022-12-24T14:19:52;34.50;;;6.45;;
37593;SDS011;23441;50.856;6.076;2022-12-24T14:22:36;32.90;;;6.20;;
37593;SDS011;23441;50.856;6.076;2022-12-24T14:30:07;37.22;;;6.60;;
37593;SDS011;23441;50.856;6.076;2022-12-24T14:32:41;26.38;;;6.40;;
37593;SDS011;23441;50.856;6.076;2022-12-24T14:35:10;32.40;;;6.13;;
37593;SDS011;23441;50.856;6.076;2022-12-24T14:38:25;30.63;;;6.03;;
37593;SDS011;23441;50.856;6.076;2022-12-24T14:49:06;29.77;;;6.60;;
37593;SDS011;23441;50.856;6.076;2022-12-24T14:54:38;33.30;;;6.55;;
37593;SDS011;23441;50.856;6.076;2022-12-24T14:59:45;37.20;;;7.88;;
37593;SDS011;23441;50.856;6.076;2022-12-24T15:05:26;41.70;;;8.23;;
37593;SDS011;23441;50.856;6.076;2022-12-24T15:07:55;32.90;;;7.68;;
37593;SDS011;23441;50.856;6.076;2022-12-24T15:10:27;33.40;;;8.30;;
37593;SDS011;23441;50.856;6.076;2022-12-24T15:13:00;35.08;;;8.13;;
37593;SDS011;23441;50.856;6.076;2022-12-24T15:15:29;37.20;;;7.97;;
37593;SDS011;23441;50.856;6.076;2022-12-24T15:17:56;33.97;;;7.80;;
37593;SDS011;23441;50.856;6.076;2022-12-24T15:20:23;29.75;;;7.57;;
37593;SDS011;23441;50.856;6.076;2022-12-24T15:22:52;34.60;;;8.50;;
37593;SDS011;23441;50.856;6.076;2022-12-24T15:25:27;36.72;;;9.80;;
37593;SDS011;23441;50.856;6.076;2022-12-24T15:27:55;44.72;;;9.60;;
37593;SDS011;23441;50.856;6.076;2022-12-24T15:30:29;35.55;;;8.40;;
37593;SDS011;23441;50.856;6.076;2022-12-24T15:32:56;37.80;;;8.40;;
37593;SDS011;23441;50.856;6.076;2022-12-24T15:35:32;32.47;;;8.02;;
37593;SDS011;23441;50.856;6.076;2022-12-24T15:40:49;28.98;;;8.73;;
37593;SDS011;23441;50.856;6.076;2022-12-24T15:43:15;33.22;;;8.93;;
37593;SDS011;23441;50.856;6.076;2022-12-24T15:45:42;39.08;;;13.25;;
37593;SDS011;23441;50.856;6.076;2022-12-24T15:48:22;36.78;;;12.98;;
37593;SDS011;23441;50.856;6.076;2022-12-24T15:50:56;45.10;;;15.50;;
37593;SDS011;23441;50.856;6.076;2022-12-24T15:53:28;37.88;;;13.18;;
37593;SDS011;23441;50.856;6.076;2022-12-24T15:58:39;32.35;;;11.45;;
37593;SDS011;23441;50.856;6.076;2022-12-24T16:03:38;31.90;;;8.98;;
37593;SDS011;23441;50.856;6.076;2022-12-24T16:06:14;30.15;;;9.57;;
37593;SDS011;23441;50.856;6.076;2022-12-24T16:08:40;29.83;;;9.80;;
37593;SDS011;23441;50.856;6.076;2022-12-24T16:11:08;33.65;;;9.57;;
37593;SDS011;23441;50.856;6.076;2022-12-24T16:13:39;38.63;;;8.70;;
37593;SDS011;23441;50.856;6.076;2022-12-24T16:16:08;31.67;;;8.35;;
37593;SDS011;23441;50.856;6.076;2022-12-24T16:18:41;37.70;;;11.00;;
37593;SDS011;23441;50.856;6.076;2022-12-24T16:21:22;33.15;;;10.45;;
37593;SDS011;23441;50.856;6.076;2022-12-24T16:23:49;37.03;;;10.93;;
37593;SDS011;23441;50.856;6.076;2022-12-24T16:26:17;32.47;;;9.32;;
37593;SDS011;23441;50.856;6.076;2022-12-24T16:28:42;37.85;;;10.05;;
37593;SDS011;23441;50.856;6.076;2022-12-24T16:31:14;32.83;;;10.65;;
37593;SDS011;23441;50.856;6.076;2022-12-24T16:33:42;38.25;;;12.05;;
37593;SDS011;23441;50.856;6.076;2022-12-24T16:36:08;42.88;;;17.10;;
37593;SDS011;23441;50.856;6.076;2022-12-24T16:38:35;33.85;;;14.80;;
37593;SDS011;23441;50.856;6.076;2022-12-24T16:41:20;31.98;;;11.23;;
37593;SDS011;23441;50.856;6.076;2022-12-24T16:43:46;29.45;;;8.13;;
37593;SDS011;23441;50.856;6.076;2022-12-24T16:46:15;29.48;;;7.20;;
37593;SDS011;23441;50.856;6.076;2022-12-24T16:48:42;34.47;;;7.40;;
37593;SDS011;23441;50.856;6.076;2022-12-24T16:51:10;35.25;;;8.18;;
37593;SDS011;23441;50.856;6.076;2022-12-24T16:53:36;30.83;;;7.35;;